Terminal Aerodrome Forecast
Issued by NWS

Home | Current Version | Previous Version | Text Only | Print | Product List | Glossary On
Versions: 1 2 3 4 5 6 7 8 9 10 11 12 13 14 15 16 17 18 19
320
FTUS43 KDLH 161738
TAFBRD
TAF
KBRD 161738Z 1618/1718 14013G17KT P6SM OVC016
     FM170600 17015G25KT P6SM OVC050
     FM171200 17009G19KT P6SM OVC060
     FM171500 21005KT P6SM OVC020=

USA.gov is the U.S. government's official web portal to all federal, state and local government web resources and services.